sensor_id;sensor_type;location;lat;lon;timestamp;temperature;humidity
316;DHT22;14128;48.686;9.738;2023-02-01T00:00:12;4.30;1.40
316;DHT22;14128;48.686;9.738;2023-02-01T00:02:42;4.30;1.40
316;DHT22;14128;48.686;9.738;2023-02-01T00:05:09;4.30;1.40
316;DHT22;14128;48.686;9.738;2023-02-01T00:07:37;4.30;1.40
316;DHT22;14128;48.686;9.738;2023-02-01T00:10:05;4.30;1.40
316;DHT22;14128;48.686;9.738;2023-02-01T00:12:32;4.40;1.40
316;DHT22;14128;48.686;9.738;2023-02-01T00:14:59;4.40;1.40
316;DHT22;14128;48.686;9.738;2023-02-01T00:17:26;4.40;1.40
316;DHT22;14128;48.686;9.738;2023-02-01T00:19:54;4.40;1.40
316;DHT22;14128;48.686;9.738;2023-02-01T00:22:21;4.50;1.40
316;DHT22;14128;48.686;9.738;2023-02-01T00:24:48;4.40;1.40
316;DHT22;14128;48.686;9.738;2023-02-01T00:27:14;4.40;1.40
316;DHT22;14128;48.686;9.738;2023-02-01T00:29:45;4.40;1.40
316;DHT22;14128;48.686;9.738;2023-02-01T00:32:13;4.40;1.40
316;DHT22;14128;48.686;9.738;2023-02-01T00:34:39;4.40;1.40
316;DHT22;14128;48.686;9.738;2023-02-01T00:37:07;4.40;1.40
316;DHT22;14128;48.686;9.738;2023-02-01T00:39:34;4.40;1.40
316;DHT22;14128;48.686;9.738;2023-02-01T00:42:01;4.40;1.40
316;DHT22;14128;48.686;9.738;2023-02-01T00:44:29;4.40;1.40
316;DHT22;14128;48.686;9.738;2023-02-01T00:46:59;4.40;1.40
316;DHT22;14128;48.686;9.738;2023-02-01T00:49:26;4.40;1.40
316;DHT22;14128;48.686;9.738;2023-02-01T00:51:53;4.30;1.40
316;DHT22;14128;48.686;9.738;2023-02-01T00:54:21;4.30;1.40
316;DHT22;14128;48.686;9.738;2023-02-01T00:56:48;4.30;1.40
316;DHT22;14128;48.686;9.738;2023-02-01T00:59:15;4.30;1.40
316;DHT22;14128;48.686;9.738;2023-02-01T01:01:42;4.30;1.40
316;DHT22;14128;48.686;9.738;2023-02-01T01:04:09;4.30;1.40
316;DHT22;14128;48.686;9.738;2023-02-01T01:06:35;4.40;1.40
316;DHT22;14128;48.686;9.738;2023-02-01T01:09:04;4.50;1.40
316;DHT22;14128;48.686;9.738;2023-02-01T01:11:35;4.50;1.40
316;DHT22;14128;48.686;9.738;2023-02-01T01:14:02;4.50;1.40
316;DHT22;14128;48.686;9.738;2023-02-01T01:16:30;4.50;1.40
316;DHT22;14128;48.686;9.738;2023-02-01T01:18:57;4.50;1.40
316;DHT22;14128;48.686;9.738;2023-02-01T01:21:25;4.60;1.40
316;DHT22;14128;48.686;9.738;2023-02-01T01:23:52;4.50;1.40
316;DHT22;14128;48.686;9.738;2023-02-01T01:26:20;4.50;1.40
316;DHT22;14128;48.686;9.738;2023-02-01T01:28:49;4.50;1.40
316;DHT22;14128;48.686;9.738;2023-02-01T01:31:18;4.50;1.40
316;DHT22;14128;48.686;9.738;2023-02-01T01:33:48;4.50;1.40
316;DHT22;14128;48.686;9.738;2023-02-01T01:36:16;4.50;1.40
316;DHT22;14128;48.686;9.738;2023-02-01T01:38:43;4.50;1.40
316;DHT22;14128;48.686;9.738;2023-02-01T01:41:14;4.50;1.40
316;DHT22;14128;48.686;9.738;2023-02-01T01:43:51;4.50;1.40
316;DHT22;14128;48.686;9.738;2023-02-01T01:46:19;4.30;1.40
316;DHT22;14128;48.686;9.738;2023-02-01T01:48:48;4.40;1.40
316;DHT22;14128;48.686;9.738;2023-02-01T01:51:18;4.40;1.40
316;DHT22;14128;48.686;9.738;2023-02-01T01:53:53;4.40;1.40
316;DHT22;14128;48.686;9.738;2023-02-01T01:56:23;4.30;1.40
316;DHT22;14128;48.686;9.738;2023-02-01T01:58:53;4.30;1.40
316;DHT22;14128;48.686;9.738;2023-02-01T02:01:21;4.30;1.40
316;DHT22;14128;48.686;9.738;2023-02-01T02:03:48;4.40;1.40
316;DHT22;14128;48.686;9.738;2023-02-01T02:06:21;4.30;1.40
316;DHT22;14128;48.686;9.738;2023-02-01T02:08:50;4.30;1.40
316;DHT22;14128;48.686;9.738;2023-02-01T02:11:17;4.30;1.40
316;DHT22;14128;48.686;9.738;2023-02-01T02:13:47;4.40;1.40
316;DHT22;14128;48.686;9.738;2023-02-01T02:16:39;4.40;1.40
316;DHT22;14128;48.686;9.738;2023-02-01T02:22:35;4.50;1.40
316;DHT22;14128;48.686;9.738;2023-02-01T02:25:49;4.50;1.40
316;DHT22;14128;48.686;9.738;2023-02-01T02:31:58;4.50;1.40
316;DHT22;14128;48.686;9.738;2023-02-01T02:34:30;4.60;1.40
316;DHT22;14128;48.686;9.738;2023-02-01T02:37:06;4.50;1.40
316;DHT22;14128;48.686;9.738;2023-02-01T02:39:46;4.50;1.40
316;DHT22;14128;48.686;9.738;2023-02-01T02:42:24;4.50;1.40
316;DHT22;14128;48.686;9.738;2023-02-01T02:45:14;4.50;1.40
316;DHT22;14128;48.686;9.738;2023-02-01T02:48:07;4.60;1.40
316;DHT22;14128;48.686;9.738;2023-02-01T02:50:42;4.60;1.40
316;DHT22;14128;48.686;9.738;2023-02-01T02:53:33;4.60;1.40
316;DHT22;14128;48.686;9.738;2023-02-01T02:56:21;4.60;1.40
316;DHT22;14128;48.686;9.738;2023-02-01T02:59:07;4.60;1.40
316;DHT22;14128;48.686;9.738;2023-02-01T03:01:53;4.60;1.40
316;DHT22;14128;48.686;9.738;2023-02-01T03:04:37;4.60;1.40
316;DHT22;14128;48.686;9.738;2023-02-01T03:07:49;4.60;1.40
316;DHT22;14128;48.686;9.738;2023-02-01T03:10:26;4.60;1.40
316;DHT22;14128;48.686;9.738;2023-02-01T03:13:01;4.60;1.40
316;DHT22;14128;48.686;9.738;2023-02-01T03:15:33;4.60;1.40
316;DHT22;14128;48.686;9.738;2023-02-01T03:18:03;4.70;1.40
316;DHT22;14128;48.686;9.738;2023-02-01T03:20:32;4.70;1.40
316;DHT22;14128;48.686;9.738;2023-02-01T03:23:02;4.70;1.40
316;DHT22;14128;48.686;9.738;2023-02-01T03:25:32;4.70;1.40
316;DHT22;14128;48.686;9.738;2023-02-01T03:28:01;4.70;1.40
316;DHT22;14128;48.686;9.738;2023-02-01T03:30:32;4.70;1.40
316;DHT22;14128;48.686;9.738;2023-02-01T03:33:03;4.60;1.40
316;DHT22;14128;48.686;9.738;2023-02-01T03:35:40;4.60;1.40
316;DHT22;14128;48.686;9.738;2023-02-01T03:38:19;4.60;1.40
316;DHT22;14128;48.686;9.738;2023-02-01T03:40:52;4.50;1.40
316;DHT22;14128;48.686;9.738;2023-02-01T03:43:22;4.40;1.40
316;DHT22;14128;48.686;9.738;2023-02-01T03:45:52;4.40;1.40
316;DHT22;14128;48.686;9.738;2023-02-01T03:48:21;4.30;1.40
316;DHT22;14128;48.686;9.738;2023-02-01T03:50:52;4.30;1.40
316;DHT22;14128;48.686;9.738;2023-02-01T03:53:23;4.30;1.40
316;DHT22;14128;48.686;9.738;2023-02-01T03:55:52;4.20;1.40
316;DHT22;14128;48.686;9.738;2023-02-01T03:58:22;4.10;1.40
316;DHT22;14128;48.686;9.738;2023-02-01T04:00:52;4.10;1.40
316;DHT22;14128;48.686;9.738;2023-02-01T04:03:19;4.10;1.40
316;DHT22;14128;48.686;9.738;2023-02-01T04:05:47;4.10;1.40
316;DHT22;14128;48.686;9.738;2023-02-01T04:08:14;4.10;1.40
316;DHT22;14128;48.686;9.738;2023-02-01T04:10:42;4.20;1.40
316;DHT22;14128;48.686;9.738;2023-02-01T04:13:09;4.20;1.40
316;DHT22;14128;48.686;9.738;2023-02-01T04:15:36;4.40;1.40
316;DHT22;14128;48.686;9.738;2023-02-01T04:18:03;4.50;1.40
316;DHT22;14128;48.686;9.738;2023-02-01T04:20:30;4.60;1.40
316;DHT22;14128;48.686;9.738;2023-02-01T04:22:57;4.60;1.40
316;DHT22;14128;48.686;9.738;2023-02-01T04:25:24;4.70;1.40
316;DHT22;14128;48.686;9.738;2023-02-01T04:27:52;4.80;1.40
316;DHT22;14128;48.686;9.738;2023-02-01T04:30:19;4.80;1.40
316;DHT22;14128;48.686;9.738;2023-02-01T04:32:46;4.90;1.40
316;DHT22;14128;48.686;9.738;2023-02-01T04:35:13;5.00;1.40
316;DHT22;14128;48.686;9.738;2023-02-01T04:37:39;5.00;1.40
316;DHT22;14128;48.686;9.738;2023-02-01T04:40:07;5.00;1.40
316;DHT22;14128;48.686;9.738;2023-02-01T04:42:34;5.00;1.40
316;DHT22;14128;48.686;9.738;2023-02-01T04:45:03;5.00;1.40
316;DHT22;14128;48.686;9.738;2023-02-01T04:47:30;5.00;1.40
316;DHT22;14128;48.686;9.738;2023-02-01T04:49:57;5.00;1.40
316;DHT22;14128;48.686;9.738;2023-02-01T04:52:24;4.90;1.40
316;DHT22;14128;48.686;9.738;2023-02-01T04:54:50;5.00;1.40
316;DHT22;14128;48.686;9.738;2023-02-01T04:57:19;5.00;1.40
316;DHT22;14128;48.686;9.738;2023-02-01T04:59:46;4.90;1.40
316;DHT22;14128;48.686;9.738;2023-02-01T05:02:14;4.80;1.40
316;DHT22;14128;48.686;9.738;2023-02-01T05:04:41;4.80;1.40
316;DHT22;14128;48.686;9.738;2023-02-01T05:07:08;4.70;1.40
316;DHT22;14128;48.686;9.738;2023-02-01T05:09:35;4.70;1.40
316;DHT22;14128;48.686;9.738;2023-02-01T05:12:01;4.60;1.40
316;DHT22;14128;48.686;9.738;2023-02-01T05:14:46;4.60;1.40
316;DHT22;14128;48.686;9.738;2023-02-01T05:17:14;4.50;1.40
316;DHT22;14128;48.686;9.738;2023-02-01T05:19:41;4.50;1.40
316;DHT22;14128;48.686;9.738;2023-02-01T05:22:08;4.80;1.40
316;DHT22;14128;48.686;9.738;2023-02-01T05:24:34;4.80;1.40
316;DHT22;14128;48.686;9.738;2023-02-01T05:27:01;4.80;1.40
316;DHT22;14128;48.686;9.738;2023-02-01T05:29:28;4.90;1.40
316;DHT22;14128;48.686;9.738;2023-02-01T05:31:55;4.90;1.40
316;DHT22;14128;48.686;9.738;2023-02-01T05:34:23;5.00;1.40
316;DHT22;14128;48.686;9.738;2023-02-01T05:36:50;5.10;1.40
316;DHT22;14128;48.686;9.738;2023-02-01T05:39:17;5.10;1.40
316;DHT22;14128;48.686;9.738;2023-02-01T05:41:44;5.00;1.40
316;DHT22;14128;48.686;9.738;2023-02-01T05:44:11;5.00;1.40
316;DHT22;14128;48.686;9.738;2023-02-01T05:46:38;5.10;1.40
316;DHT22;14128;48.686;9.738;2023-02-01T05:49:04;5.00;1.40
316;DHT22;14128;48.686;9.738;2023-02-01T05:51:33;5.10;1.40
316;DHT22;14128;48.686;9.738;2023-02-01T05:53:59;5.00;1.40
316;DHT22;14128;48.686;9.738;2023-02-01T05:56:26;5.10;1.40
316;DHT22;14128;48.686;9.738;2023-02-01T05:58:53;5.10;1.40
316;DHT22;14128;48.686;9.738;2023-02-01T06:01:20;5.10;1.40
316;DHT22;14128;48.686;9.738;2023-02-01T06:03:47;5.20;1.40
316;DHT22;14128;48.686;9.738;2023-02-01T06:06:13;5.20;1.40
316;DHT22;14128;48.686;9.738;2023-02-01T06:08:42;5.20;1.40
316;DHT22;14128;48.686;9.738;2023-02-01T06:11:08;5.10;1.40
316;DHT22;14128;48.686;9.738;2023-02-01T06:13:35;5.10;1.40
316;DHT22;14128;48.686;9.738;2023-02-01T06:16:04;5.10;1.40
316;DHT22;14128;48.686;9.738;2023-02-01T06:18:33;5.10;1.40
316;DHT22;14128;48.686;9.738;2023-02-01T06:21:00;5.10;1.40
316;DHT22;14128;48.686;9.738;2023-02-01T06:23:27;5.10;1.40
316;DHT22;14128;48.686;9.738;2023-02-01T06:26:00;5.00;1.40
316;DHT22;14128;48.686;9.738;2023-02-01T06:28:27;5.10;1.40
316;DHT22;14128;48.686;9.738;2023-02-01T06:30:54;5.00;1.40
316;DHT22;14128;48.686;9.738;2023-02-01T06:33:23;5.00;1.40
316;DHT22;14128;48.686;9.738;2023-02-01T06:35:57;5.00;1.40
316;DHT22;14128;48.686;9.738;2023-02-01T06:38:24;4.90;1.40
316;DHT22;14128;48.686;9.738;2023-02-01T06:40:52;4.80;1.40
316;DHT22;14128;48.686;9.738;2023-02-01T06:43:20;4.70;1.40
316;DHT22;14128;48.686;9.738;2023-02-01T06:45:47;4.60;1.40
316;DHT22;14128;48.686;9.738;2023-02-01T06:48:14;4.50;1.40
316;DHT22;14128;48.686;9.738;2023-02-01T06:50:41;4.50;1.40
316;DHT22;14128;48.686;9.738;2023-02-01T06:53:08;4.50;1.40
316;DHT22;14128;48.686;9.738;2023-02-01T06:55:34;4.50;1.40
316;DHT22;14128;48.686;9.738;2023-02-01T06:58:01;4.60;1.40
316;DHT22;14128;48.686;9.738;2023-02-01T07:00:29;4.60;1.40
316;DHT22;14128;48.686;9.738;2023-02-01T07:02:58;4.60;1.40
316;DHT22;14128;48.686;9.738;2023-02-01T07:05:25;4.60;1.40
316;DHT22;14128;48.686;9.738;2023-02-01T07:07:52;4.60;1.40
316;DHT22;14128;48.686;9.738;2023-02-01T07:10:18;4.70;1.40
316;DHT22;14128;48.686;9.738;2023-02-01T07:12:45;4.70;1.40
316;DHT22;14128;48.686;9.738;2023-02-01T07:15:12;4.80;1.40
316;DHT22;14128;48.686;9.738;2023-02-01T07:17:40;4.80;1.40
316;DHT22;14128;48.686;9.738;2023-02-01T07:20:08;4.90;1.40
316;DHT22;14128;48.686;9.738;2023-02-01T07:22:35;4.90;1.40
316;DHT22;14128;48.686;9.738;2023-02-01T07:25:02;4.90;1.40
316;DHT22;14128;48.686;9.738;2023-02-01T07:27:29;4.90;1.40
316;DHT22;14128;48.686;9.738;2023-02-01T07:29:56;4.90;1.40
316;DHT22;14128;48.686;9.738;2023-02-01T07:32:27;4.90;1.40
316;DHT22;14128;48.686;9.738;2023-02-01T07:34:55;4.90;1.40
316;DHT22;14128;48.686;9.738;2023-02-01T07:37:22;4.90;1.40
316;DHT22;14128;48.686;9.738;2023-02-01T07:39:50;4.90;1.40
316;DHT22;14128;48.686;9.738;2023-02-01T07:42:17;4.90;1.40
316;DHT22;14128;48.686;9.738;2023-02-01T07:44:44;4.90;1.40
316;DHT22;14128;48.686;9.738;2023-02-01T07:47:10;4.90;1.40
316;DHT22;14128;48.686;9.738;2023-02-01T07:49:37;4.90;1.40
316;DHT22;14128;48.686;9.738;2023-02-01T07:52:05;4.90;1.40
316;DHT22;14128;48.686;9.738;2023-02-01T07:54:32;4.90;1.40
316;DHT22;14128;48.686;9.738;2023-02-01T07:56:59;4.90;1.40
316;DHT22;14128;48.686;9.738;2023-02-01T07:59:26;4.90;1.40
316;DHT22;14128;48.686;9.738;2023-02-01T08:01:53;4.90;1.40
316;DHT22;14128;48.686;9.738;2023-02-01T08:04:18;4.90;1.40
316;DHT22;14128;48.686;9.738;2023-02-01T08:06:45;5.00;1.40
316;DHT22;14128;48.686;9.738;2023-02-01T08:09:14;5.00;1.40
316;DHT22;14128;48.686;9.738;2023-02-01T08:11:40;5.00;1.40
316;DHT22;14128;48.686;9.738;2023-02-01T08:14:07;5.00;1.40
316;DHT22;14128;48.686;9.738;2023-02-01T08:16:34;5.00;1.40
316;DHT22;14128;48.686;9.738;2023-02-01T08:19:03;5.00;1.40
316;DHT22;14128;48.686;9.738;2023-02-01T08:21:30;5.00;1.40
316;DHT22;14128;48.686;9.738;2023-02-01T08:24:03;5.10;1.40
316;DHT22;14128;48.686;9.738;2023-02-01T08:26:32;5.10;1.40
316;DHT22;14128;48.686;9.738;2023-02-01T08:29:00;5.10;1.40
316;DHT22;14128;48.686;9.738;2023-02-01T08:31:29;5.20;1.40
316;DHT22;14128;48.686;9.738;2023-02-01T08:33:57;5.30;1.40
316;DHT22;14128;48.686;9.738;2023-02-01T08:36:26;5.50;1.40
316;DHT22;14128;48.686;9.738;2023-02-01T08:38:53;5.60;1.40
316;DHT22;14128;48.686;9.738;2023-02-01T08:41:22;5.70;1.40
316;DHT22;14128;48.686;9.738;2023-02-01T08:43:50;5.80;1.40
316;DHT22;14128;48.686;9.738;2023-02-01T08:46:18;5.90;1.40
316;DHT22;14128;48.686;9.738;2023-02-01T08:48:46;6.10;1.40
316;DHT22;14128;48.686;9.738;2023-02-01T08:51:15;6.20;1.40
316;DHT22;14128;48.686;9.738;2023-02-01T08:53:42;6.20;1.40
316;DHT22;14128;48.686;9.738;2023-02-01T08:56:11;6.30;1.40
316;DHT22;14128;48.686;9.738;2023-02-01T08:58:38;6.20;1.40
316;DHT22;14128;48.686;9.738;2023-02-01T09:01:08;6.20;1.40
316;DHT22;14128;48.686;9.738;2023-02-01T09:03:35;6.20;1.40
316;DHT22;14128;48.686;9.738;2023-02-01T09:06:02;6.20;1.40
316;DHT22;14128;48.686;9.738;2023-02-01T09:08:30;6.20;1.40
316;DHT22;14128;48.686;9.738;2023-02-01T09:11:00;6.20;1.40
316;DHT22;14128;48.686;9.738;2023-02-01T09:13:27;6.30;1.40
316;DHT22;14128;48.686;9.738;2023-02-01T09:15:54;6.30;1.40
316;DHT22;14128;48.686;9.738;2023-02-01T09:18:22;6.40;1.40
316;DHT22;14128;48.686;9.738;2023-02-01T09:20:49;6.30;1.40
316;DHT22;14128;48.686;9.738;2023-02-01T09:23:15;6.20;1.40
316;DHT22;14128;48.686;9.738;2023-02-01T09:25:42;6.30;1.40
316;DHT22;14128;48.686;9.738;2023-02-01T09:28:09;6.30;1.40
316;DHT22;14128;48.686;9.738;2023-02-01T09:30:37;6.30;1.40
316;DHT22;14128;48.686;9.738;2023-02-01T09:33:04;6.30;1.40
316;DHT22;14128;48.686;9.738;2023-02-01T09:35:32;6.40;1.40
316;DHT22;14128;48.686;9.738;2023-02-01T09:37:59;6.50;1.40
316;DHT22;14128;48.686;9.738;2023-02-01T09:40:26;6.50;1.40
316;DHT22;14128;48.686;9.738;2023-02-01T09:43:02;6.30;1.40
316;DHT22;14128;48.686;9.738;2023-02-01T09:45:36;6.30;1.40
316;DHT22;14128;48.686;9.738;2023-02-01T09:48:11;6.10;1.40
316;DHT22;14128;48.686;9.738;2023-02-01T09:50:45;6.20;1.40
316;DHT22;14128;48.686;9.738;2023-02-01T09:53:18;6.20;1.40
316;DHT22;14128;48.686;9.738;2023-02-01T09:55:48;6.10;1.40
316;DHT22;14128;48.686;9.738;2023-02-01T09:58:19;6.00;1.40
316;DHT22;14128;48.686;9.738;2023-02-01T10:00:52;5.90;1.40
316;DHT22;14128;48.686;9.738;2023-02-01T10:03:19;5.80;1.40
316;DHT22;14128;48.686;9.738;2023-02-01T10:06:16;5.70;1.40
316;DHT22;14128;48.686;9.738;2023-02-01T10:09:06;5.70;1.40
316;DHT22;14128;48.686;9.738;2023-02-01T10:11:46;5.70;1.40
316;DHT22;14128;48.686;9.738;2023-02-01T10:14:35;5.80;1.40
316;DHT22;14128;48.686;9.738;2023-02-01T10:17:16;5.90;1.40
316;DHT22;14128;48.686;9.738;2023-02-01T10:19:51;5.90;1.40
316;DHT22;14128;48.686;9.738;2023-02-01T10:22:33;6.00;1.40
316;DHT22;14128;48.686;9.738;2023-02-01T10:25:06;6.00;1.40
316;DHT22;14128;48.686;9.738;2023-02-01T10:27:36;6.10;1.40
316;DHT22;14128;48.686;9.738;2023-02-01T10:30:16;6.20;1.40
316;DHT22;14128;48.686;9.738;2023-02-01T10:32:44;6.10;1.40
316;DHT22;14128;48.686;9.738;2023-02-01T10:35:15;6.00;1.40
316;DHT22;14128;48.686;9.738;2023-02-01T10:37:44;5.90;1.40
316;DHT22;14128;48.686;9.738;2023-02-01T10:40:17;5.90;1.40
316;DHT22;14128;48.686;9.738;2023-02-01T10:42:47;5.90;1.40
316;DHT22;14128;48.686;9.738;2023-02-01T10:45:18;5.90;1.40
316;DHT22;14128;48.686;9.738;2023-02-01T10:47:46;5.90;1.40
316;DHT22;14128;48.686;9.738;2023-02-01T10:50:18;5.90;1.40
316;DHT22;14128;48.686;9.738;2023-02-01T10:52:52;6.10;1.40
316;DHT22;14128;48.686;9.738;2023-02-01T10:55:47;6.00;1.40
316;DHT22;14128;48.686;9.738;2023-02-01T10:58:16;6.00;1.40
316;DHT22;14128;48.686;9.738;2023-02-01T11:00:52;6.00;1.40
316;DHT22;14128;48.686;9.738;2023-02-01T11:03:21;6.10;1.40
316;DHT22;14128;48.686;9.738;2023-02-01T11:05:52;6.20;1.40
316;DHT22;14128;48.686;9.738;2023-02-01T11:08:20;6.30;1.40
316;DHT22;14128;48.686;9.738;2023-02-01T11:10:47;6.60;1.40
316;DHT22;14128;48.686;9.738;2023-02-01T11:13:29;6.70;1.40
316;DHT22;14128;48.686;9.738;2023-02-01T11:15:56;6.60;1.40
316;DHT22;14128;48.686;9.738;2023-02-01T11:18:27;6.40;1.40
316;DHT22;14128;48.686;9.738;2023-02-01T11:20:54;6.20;1.40
316;DHT22;14128;48.686;9.738;2023-02-01T11:23:25;6.20;1.40
316;DHT22;14128;48.686;9.738;2023-02-01T11:25:55;6.10;1.40
316;DHT22;14128;48.686;9.738;2023-02-01T11:28:24;6.10;1.40
316;DHT22;14128;48.686;9.738;2023-02-01T11:30:54;6.00;1.40
316;DHT22;14128;48.686;9.738;2023-02-01T11:33:26;6.10;1.40
316;DHT22;14128;48.686;9.738;2023-02-01T11:35:55;6.10;1.40
316;DHT22;14128;48.686;9.738;2023-02-01T11:38:28;6.20;1.40
316;DHT22;14128;48.686;9.738;2023-02-01T11:40:55;6.20;1.40
316;DHT22;14128;48.686;9.738;2023-02-01T11:43:37;6.40;1.40
316;DHT22;14128;48.686;9.738;2023-02-01T11:46:17;6.50;1.40
316;DHT22;14128;48.686;9.738;2023-02-01T11:48:47;6.60;1.40
316;DHT22;14128;48.686;9.738;2023-02-01T11:51:33;6.60;1.40
316;DHT22;14128;48.686;9.738;2023-02-01T11:54:15;6.60;1.40
316;DHT22;14128;48.686;9.738;2023-02-01T11:56:51;6.70;1.40
316;DHT22;14128;48.686;9.738;2023-02-01T11:59:38;6.70;1.40
316;DHT22;14128;48.686;9.738;2023-02-01T12:02:32;6.50;1.40
316;DHT22;14128;48.686;9.738;2023-02-01T12:05:14;6.40;1.40
316;DHT22;14128;48.686;9.738;2023-02-01T12:08:00;6.30;1.40
316;DHT22;14128;48.686;9.738;2023-02-01T12:10:40;6.20;1.40
316;DHT22;14128;48.686;9.738;2023-02-01T12:13:20;6.20;1.40
316;DHT22;14128;48.686;9.738;2023-02-01T12:16:00;6.30;1.40
316;DHT22;14128;48.686;9.738;2023-02-01T12:18:57;6.50;1.40
316;DHT22;14128;48.686;9.738;2023-02-01T12:21:36;6.70;1.40
316;DHT22;14128;48.686;9.738;2023-02-01T12:24:32;6.60;1.40
316;DHT22;14128;48.686;9.738;2023-02-01T12:27:32;6.60;1.40
316;DHT22;14128;48.686;9.738;2023-02-01T12:30:13;6.60;1.40
316;DHT22;14128;48.686;9.738;2023-02-01T12:32:54;6.50;1.40
316;DHT22;14128;48.686;9.738;2023-02-01T12:35:44;6.50;1.40
316;DHT22;14128;48.686;9.738;2023-02-01T12:38:27;6.50;1.40
316;DHT22;14128;48.686;9.738;2023-02-01T12:41:08;6.50;1.40
316;DHT22;14128;48.686;9.738;2023-02-01T12:43:43;6.40;1.40
316;DHT22;14128;48.686;9.738;2023-02-01T12:46:14;6.20;1.40
316;DHT22;14128;48.686;9.738;2023-02-01T12:48:53;6.20;1.40
316;DHT22;14128;48.686;9.738;2023-02-01T12:51:24;6.20;1.40
316;DHT22;14128;48.686;9.738;2023-02-01T12:53:56;6.20;1.40
316;DHT22;14128;48.686;9.738;2023-02-01T12:56:28;6.10;1.40
316;DHT22;14128;48.686;9.738;2023-02-01T12:59:00;6.20;1.40
316;DHT22;14128;48.686;9.738;2023-02-01T13:01:33;6.10;1.40
316;DHT22;14128;48.686;9.738;2023-02-01T13:04:06;6.10;1.40
316;DHT22;14128;48.686;9.738;2023-02-01T13:06:39;6.10;1.40
316;DHT22;14128;48.686;9.738;2023-02-01T13:09:15;6.00;1.40
316;DHT22;14128;48.686;9.738;2023-02-01T13:11:45;6.00;1.40
316;DHT22;14128;48.686;9.738;2023-02-01T13:14:23;5.90;1.40
316;DHT22;14128;48.686;9.738;2023-02-01T13:16:53;5.90;1.40
316;DHT22;14128;48.686;9.738;2023-02-01T13:19:26;5.90;1.40
316;DHT22;14128;48.686;9.738;2023-02-01T13:21:57;5.80;1.40
316;DHT22;14128;48.686;9.738;2023-02-01T13:24:32;5.80;1.40
316;DHT22;14128;48.686;9.738;2023-02-01T13:27:00;5.80;1.40
316;DHT22;14128;48.686;9.738;2023-02-01T13:29:29;5.80;1.40
316;DHT22;14128;48.686;9.738;2023-02-01T13:32:10;5.80;1.40
316;DHT22;14128;48.686;9.738;2023-02-01T13:35:03;5.80;1.40
316;DHT22;14128;48.686;9.738;2023-02-01T13:37:53;5.80;1.40
316;DHT22;14128;48.686;9.738;2023-02-01T13:40:39;5.70;1.40
316;DHT22;14128;48.686;9.738;2023-02-01T13:43:11;5.70;1.40
316;DHT22;14128;48.686;9.738;2023-02-01T13:45:46;5.70;1.40
316;DHT22;14128;48.686;9.738;2023-02-01T13:48:22;5.70;1.40
316;DHT22;14128;48.686;9.738;2023-02-01T13:50:53;5.70;1.40
316;DHT22;14128;48.686;9.738;2023-02-01T13:53:26;5.70;1.40
316;DHT22;14128;48.686;9.738;2023-02-01T13:55:59;5.70;1.40
316;DHT22;14128;48.686;9.738;2023-02-01T13:58:35;5.80;1.40
316;DHT22;14128;48.686;9.738;2023-02-01T14:01:34;5.80;1.40
316;DHT22;14128;48.686;9.738;2023-02-01T14:04:04;5.80;1.40
316;DHT22;14128;48.686;9.738;2023-02-01T14:06:44;5.80;1.40
316;DHT22;14128;48.686;9.738;2023-02-01T14:09:17;5.90;1.40
316;DHT22;14128;48.686;9.738;2023-02-01T14:11:47;5.80;1.40
316;DHT22;14128;48.686;9.738;2023-02-01T14:14:48;5.80;1.40
316;DHT22;14128;48.686;9.738;2023-02-01T14:17:40;5.90;1.40
316;DHT22;14128;48.686;9.738;2023-02-01T14:23:21;5.80;1.40
316;DHT22;14128;48.686;9.738;2023-02-01T14:26:02;5.70;1.40
316;DHT22;14128;48.686;9.738;2023-02-01T14:28:30;5.70;1.40
316;DHT22;14128;48.686;9.738;2023-02-01T14:30:57;5.60;1.40
316;DHT22;14128;48.686;9.738;2023-02-01T14:33:27;5.60;1.40
316;DHT22;14128;48.686;9.738;2023-02-01T14:36:04;5.60;1.40
316;DHT22;14128;48.686;9.738;2023-02-01T14:38:33;5.60;1.40
316;DHT22;14128;48.686;9.738;2023-02-01T14:41:24;5.50;1.40
316;DHT22;14128;48.686;9.738;2023-02-01T14:52:47;5.60;1.40
316;DHT22;14128;48.686;9.738;2023-02-01T14:55:17;5.60;1.40
316;DHT22;14128;48.686;9.738;2023-02-01T14:57:49;5.60;1.40
316;DHT22;14128;48.686;9.738;2023-02-01T15:00:23;5.60;1.40
316;DHT22;14128;48.686;9.738;2023-02-01T15:02:53;5.50;1.40
316;DHT22;14128;48.686;9.738;2023-02-01T15:05:27;5.50;1.40
316;DHT22;14128;48.686;9.738;2023-02-01T15:07:58;5.50;1.40
316;DHT22;14128;48.686;9.738;2023-02-01T15:10:27;5.50;1.40
316;DHT22;14128;48.686;9.738;2023-02-01T15:12:56;5.50;1.40
316;DHT22;14128;48.686;9.738;2023-02-01T15:15:24;5.50;1.40
316;DHT22;14128;48.686;9.738;2023-02-01T15:17:55;5.40;1.40
316;DHT22;14128;48.686;9.738;2023-02-01T15:20:24;5.40;1.40
316;DHT22;14128;48.686;9.738;2023-02-01T15:22:56;5.40;1.40
316;DHT22;14128;48.686;9.738;2023-02-01T15:25:26;5.40;1.40
316;DHT22;14128;48.686;9.738;2023-02-01T15:27:53;5.30;1.40
316;DHT22;14128;48.686;9.738;2023-02-01T15:30:22;5.40;1.40
316;DHT22;14128;48.686;9.738;2023-02-01T15:32:50;5.30;1.40
316;DHT22;14128;48.686;9.738;2023-02-01T15:35:41;5.30;1.40
316;DHT22;14128;48.686;9.738;2023-02-01T15:38:34;5.40;1.40
316;DHT22;14128;48.686;9.738;2023-02-01T15:41:04;5.30;1.40
316;DHT22;14128;48.686;9.738;2023-02-01T15:43:35;5.40;1.40
316;DHT22;14128;48.686;9.738;2023-02-01T15:46:06;5.30;1.40
316;DHT22;14128;48.686;9.738;2023-02-01T15:48:38;5.30;1.40
316;DHT22;14128;48.686;9.738;2023-02-01T15:51:15;5.30;1.40
316;DHT22;14128;48.686;9.738;2023-02-01T15:53:52;5.30;1.40
316;DHT22;14128;48.686;9.738;2023-02-01T15:56:24;5.30;1.40
316;DHT22;14128;48.686;9.738;2023-02-01T15:58:54;5.30;1.40
316;DHT22;14128;48.686;9.738;2023-02-01T16:01:22;5.30;1.40
316;DHT22;14128;48.686;9.738;2023-02-01T16:03:54;5.30;1.40
316;DHT22;14128;48.686;9.738;2023-02-01T16:06:31;5.30;1.40
316;DHT22;14128;48.686;9.738;2023-02-01T16:09:09;5.30;1.40
316;DHT22;14128;48.686;9.738;2023-02-01T16:11:47;5.20;1.40
316;DHT22;14128;48.686;9.738;2023-02-01T16:14:14;5.20;1.40
316;DHT22;14128;48.686;9.738;2023-02-01T16:16:41;5.10;1.40
316;DHT22;14128;48.686;9.738;2023-02-01T16:19:08;5.10;1.40
316;DHT22;14128;48.686;9.738;2023-02-01T16:21:36;5.10;1.40
316;DHT22;14128;48.686;9.738;2023-02-01T16:24:04;5.10;1.40
316;DHT22;14128;48.686;9.738;2023-02-01T16:26:32;5.10;1.40
316;DHT22;14128;48.686;9.738;2023-02-01T16:28:59;5.10;1.40
316;DHT22;14128;48.686;9.738;2023-02-01T16:31:32;5.10;1.40
316;DHT22;14128;48.686;9.738;2023-02-01T16:34:00;5.10;1.40
316;DHT22;14128;48.686;9.738;2023-02-01T16:36:27;5.10;1.40
316;DHT22;14128;48.686;9.738;2023-02-01T16:38:56;5.10;1.40
316;DHT22;14128;48.686;9.738;2023-02-01T16:41:24;5.10;1.40
316;DHT22;14128;48.686;9.738;2023-02-01T16:43:53;5.10;1.40
316;DHT22;14128;48.686;9.738;2023-02-01T16:46:22;5.10;1.40
316;DHT22;14128;48.686;9.738;2023-02-01T16:48:53;5.00;1.40
316;DHT22;14128;48.686;9.738;2023-02-01T16:51:20;5.10;1.40
316;DHT22;14128;48.686;9.738;2023-02-01T16:53:48;5.00;1.40
316;DHT22;14128;48.686;9.738;2023-02-01T16:56:18;5.10;1.40
316;DHT22;14128;48.686;9.738;2023-02-01T16:58:46;5.10;1.40
316;DHT22;14128;48.686;9.738;2023-02-01T17:01:15;5.10;1.40
316;DHT22;14128;48.686;9.738;2023-02-01T17:03:42;5.10;1.40
316;DHT22;14128;48.686;9.738;2023-02-01T17:06:12;5.00;1.40
316;DHT22;14128;48.686;9.738;2023-02-01T17:08:41;5.10;1.40
316;DHT22;14128;48.686;9.738;2023-02-01T17:11:10;5.10;1.40
316;DHT22;14128;48.686;9.738;2023-02-01T17:13:39;5.00;1.40
316;DHT22;14128;48.686;9.738;2023-02-01T17:16:20;5.10;1.40
316;DHT22;14128;48.686;9.738;2023-02-01T17:18:52;5.00;1.40
316;DHT22;14128;48.686;9.738;2023-02-01T17:21:20;5.10;1.40